Aviation Digital Data Service (ADDS)

Output produced by TAFs form (0132 UTC 19 October 2017)
found at http://aviationweather.gov/adds/tafs/
 
KCNY 182322Z 1900/1924 32004KT P6SM BKN250 
     FM191400 13003KT P6SM BKN110 BKN150 
     FM191800 10004KT P6SM FEW140 SCT200 
     FM192000 20007KT P6SM FEW100 SCT200